Time;durP1;ratioP1;P1;durP2;ratioP2;P2;SDS_P1;SDS_P2;PMS_P1;PMS_P2;Temp;Humidity;BMP_temperature;BMP_pressure;BME280_temperature;BME280_humidity;BME280_pressure;Samples;Min_cycle;Max_cycle;Signal;HPM_P1;HPM_P2
2022/07/14 00:02:05;;;;;;;10.25;4.38;;;;;;;13.44;74.40;98088.06;10375643;28;20453;-55
2022/07/14 00:07:04;;;;;;;;;;;;;;;13.29;75.94;98094.25;10375171;28;20444;-55
2022/07/14 00:12:04;;;;;;;7.35;4.18;;;;;;;13.26;76.44;98098.63;10375547;28;20392;-55
2022/07/14 00:17:03;;;;;;;5.47;4.15;;;;;;;13.28;75.73;98104.66;10373349;28;20495;-55
2022/07/14 00:22:02;;;;;;;5.63;4.00;;;;;;;13.25;76.26;98109.91;10375027;28;20371;-55
2022/07/14 00:27:01;;;;;;;7.47;4.68;;;;;;;13.23;75.96;98106.44;10373772;28;20041;-55
2022/07/14 00:32:00;;;;;;;5.85;4.20;;;;;;;13.24;75.87;98097.78;10373467;28;20116;-56
2022/07/14 00:36:59;;;;;;;10.85;4.47;;;;;;;13.24;75.92;98111.66;10372323;28;20128;-56
2022/07/14 00:41:58;;;;;;;8.10;5.47;;;;;;;13.17;76.12;98088.25;10373161;28;20068;-55
2022/07/14 00:46:56;;;;;;;7.47;3.95;;;;;;;13.09;77.28;98111.72;10372739;28;20037;-55
2022/07/14 00:51:56;;;;;;;4.35;3.70;;;;;;;12.89;77.75;98104.03;10373143;28;20557;-55
2022/07/14 00:56:54;;;;;;;8.07;4.25;;;;;;;12.71;77.53;98107.56;10373081;28;20083;-55
2022/07/14 01:01:54;;;;;;;6.10;4.10;;;;;;;12.56;77.94;98107.66;10372513;28;20111;-55
2022/07/14 01:06:52;;;;;;;;;;;;;;;12.47;78.27;98101.59;10372943;28;20076;-55
2022/07/14 01:11:51;;;;;;;5.47;3.97;;;;;;;12.32;79.33;98103.34;10373129;28;19944;-55
2022/07/14 01:16:55;;;;;;;7.15;4.25;;;;;;;12.16;80.18;98111.19;10372024;28;20099;-55
2022/07/14 01:21:55;;;;;;;8.73;4.55;;;;;;;12.14;80.17;98112.91;10372175;28;20080;-55
2022/07/14 01:26:54;;;;;;;6.75;4.47;;;;;;;12.14;80.16;98109.44;10372401;28;20067;-55
2022/07/14 01:31:54;;;;;;;7.78;4.38;;;;;;;12.17;80.00;98110.28;10372138;28;20171;-55
2022/07/14 01:36:52;;;;;;;;;;;;;;;12.15;80.32;98106.81;10372207;28;20500;-56
2022/07/14 01:41:52;;;;;;;5.78;4.30;;;;;;;12.06;81.99;98099.03;10372644;28;20492;-55
2022/07/14 01:46:51;;;;;;;5.82;4.45;;;;;;;11.94;82.64;98093.84;10371581;28;20071;-55
2022/07/14 01:51:50;;;;;;;6.60;4.00;;;;;;;11.82;82.55;98085.19;10376673;28;20457;-55
2022/07/14 01:56:49;;;;;;;7.18;4.18;;;;;;;11.83;82.96;98092.13;10379365;28;20552;-55
2022/07/14 02:01:48;;;;;;;5.60;4.28;;;;;;;11.76;83.32;98092.13;10378913;28;20099;-55
2022/07/14 02:06:52;;;;;;;6.57;4.78;;;;;;;11.77;82.79;98096.47;10379055;28;20072;-54
2022/07/14 02:17:09;;;;;;;8.25;4.50;;;;;;;11.60;83.74;98101.69;10379753;28;20503;-55
2022/07/14 02:22:07;;;;;;;4.50;4.03;;;;;;;11.58;83.11;98100.81;10378330;28;20388;-55
2022/07/14 02:27:07;;;;;;;9.95;4.72;;;;;;;11.53;83.83;98087.81;10379295;28;20052;-55
2022/07/14 02:32:06;;;;;;;7.13;4.93;;;;;;;11.52;83.85;98103.38;10381512;28;20064;-55
2022/07/14 02:37:05;;;;;;;8.27;4.20;;;;;;;11.39;84.03;98100.78;10381267;28;20032;-55
2022/07/14 02:42:04;;;;;;;7.25;4.97;;;;;;;11.35;84.05;98104.22;10381340;28;20064;-55
2022/07/14 02:47:03;;;;;;;6.68;4.47;;;;;;;11.33;84.37;98105.09;10380706;28;20116;-55
2022/07/14 02:52:02;;;;;;;6.50;4.70;;;;;;;11.24;84.39;98117.22;10380742;28;20045;-55
2022/07/14 02:57:01;;;;;;;8.30;4.65;;;;;;;11.23;84.20;98109.41;10380704;28;20068;-55
2022/07/14 03:02:00;;;;;;;8.93;5.20;;;;;;;11.28;83.76;98112.88;10380448;28;20071;-55
2022/07/14 03:06:59;;;;;;;9.55;6.13;;;;;;;11.31;83.95;98105.09;10380413;28;20040;-55
2022/07/14 03:11:58;;;;;;;11.68;5.50;;;;;;;11.28;84.60;98118.09;10380376;28;20029;-55
2022/07/14 03:16:57;;;;;;;10.45;5.90;;;;;;;11.31;84.36;98128.47;10380731;28;20468;-55
2022/07/14 03:21:56;;;;;;;9.68;5.60;;;;;;;11.30;84.69;98129.34;10380029;28;20488;-55
2022/07/14 03:26:55;;;;;;;10.98;5.80;;;;;;;11.25;84.00;98120.69;10379335;28;20056;-55
2022/07/14 03:31:54;;;;;;;12.57;5.90;;;;;;;11.32;83.70;98135.41;10375963;28;20044;-55
2022/07/14 03:36:56;;;;;;;9.25;5.63;;;;;;;11.32;83.70;98145.81;10375702;28;20068;-56
2022/07/14 03:41:55;;;;;;;12.00;5.85;;;;;;;11.34;83.71;98144.09;10375585;28;20072;-55
2022/07/14 03:46:54;;;;;;;11.27;5.13;;;;;;;11.42;83.48;98150.16;10375328;28;20031;-55
2022/07/14 03:51:53;;;;;;;10.88;5.22;;;;;;;11.46;83.47;98151.91;10375353;28;20036;-55
2022/07/14 03:56:52;;;;;;;8.60;5.30;;;;;;;11.43;83.66;98153.59;10374972;28;20031;-55
2022/07/14 04:01:51;;;;;;;10.27;5.90;;;;;;;11.42;83.40;98152.75;10374940;28;20463;-55
2022/07/14 04:06:50;;;;;;;8.02;5.72;;;;;;;11.27;83.90;98165.72;10363845;28;20480;-55
2022/07/14 04:11:49;;;;;;;10.35;5.85;;;;;;;11.30;83.79;98162.25;10332564;28;20108;-55
2022/07/14 04:16:48;;;;;;;;;;;;;;;11.38;84.07;98171.78;10374210;28;20076;-55
2022/07/14 04:21:47;;;;;;;10.75;5.60;;;;;;;11.53;83.52;98175.31;10373918;28;20423;-55
2022/07/14 04:26:46;;;;;;;;;;;;;;;11.67;83.44;98163.19;10373555;28;20081;-55
2022/07/14 04:31:45;;;;;;;8.50;5.50;;;;;;;11.79;83.07;98152.81;10374519;28;19916;-55
2022/07/14 04:36:44;;;;;;;11.15;6.55;;;;;;;12.01;83.49;98163.19;10373444;28;20025;-55
2022/07/14 04:41:43;;;;;;;8.13;5.97;;;;;;;12.13;83.30;98171.00;10372955;28;20136;-55
2022/07/14 04:46:42;;;;;;;8.32;5.95;;;;;;;12.34;82.80;98167.53;10373087;28;20041;-55
2022/07/14 04:56:59;;;;;;;12.07;6.43;;;;;;;12.70;81.90;98177.03;10369668;28;20072;-55
2022/07/14 05:01:58;;;;;;;11.48;6.45;;;;;;;12.90;81.38;98179.53;10373113;28;20077;-55
2022/07/14 05:06:57;;;;;;;7.80;6.40;;;;;;;13.09;80.89;98187.28;10372031;28;20072;-55
2022/07/14 05:11:56;;;;;;;7.68;6.05;;;;;;;13.26;80.30;98169.84;10368122;28;20057;-55
2022/07/14 05:16:55;;;;;;;10.48;6.18;;;;;;;13.54;80.05;98178.44;10372299;28;20036;-55
2022/07/14 05:21:54;;;;;;;9.88;6.90;;;;;;;13.87;79.42;98173.84;10372221;28;20069;-55
2022/07/14 05:26:53;;;;;;;11.50;7.00;;;;;;;14.14;78.23;98185.78;10379373;28;20114;-55
2022/07/14 05:31:52;;;;;;;8.05;6.35;;;;;;;14.37;77.45;98182.13;10378078;28;20511;-55
2022/07/14 05:36:51;;;;;;;13.82;7.10;;;;;;;14.67;76.49;98188.81;10378836;28;20072;-56
2022/07/14 05:41:50;;;;;;;11.88;6.38;;;;;;;14.96;75.83;98179.78;10379047;28;20116;-55
2022/07/14 05:46:49;;;;;;;;;;;;;;;15.19;73.08;98175.16;10380943;28;20058;-55
2022/07/14 05:51:48;;;;;;;6.43;4.78;;;;;;;15.44;72.97;98167.00;10377808;28;20291;-55
2022/07/14 05:56:47;;;;;;;8.73;4.97;;;;;;;15.80;71.37;98168.22;10377886;28;20116;-55
2022/07/14 06:01:47;;;;;;;7.22;4.15;;;;;;;16.05;69.29;98173.09;10363208;28;20136;-56
2022/07/14 06:06:47;;;;;;;7.85;4.22;;;;;;;16.30;67.71;98163.03;10365901;28;20062;-55
2022/07/14 06:11:45;;;;;;;5.30;3.88;;;;;;;16.57;66.12;98166.94;10368226;28;20459;-56
2022/07/14 06:16:45;;;;;;;;;;;;;;;16.81;65.12;98157.75;10360999;28;20668;-56
2022/07/14 06:21:43;;;;;;;6.80;3.93;;;;;;;17.04;64.07;98157.31;10376858;28;20403;-55
2022/07/14 06:26:42;;;;;;;;;;;;;;;17.31;62.63;98149.78;10350408;28;20045;-56
2022/07/14 06:31:41;;;;;;;6.43;4.13;;;;;;;17.55;62.93;98148.34;10338909;28;19986;-57
2022/07/14 06:36:40;;;;;;;;;;;;;;;17.73;61.01;98147.94;10348342;28;20582;-58
2022/07/14 06:41:39;;;;;;;6.57;3.70;;;;;;;17.99;60.95;98143.84;10360087;28;20443;-56
2022/07/14 06:46:38;;;;;;;;;;;;;;;18.15;60.65;98147.81;10364638;28;20021;-56
2022/07/14 06:51:37;;;;;;;5.20;3.40;;;;;;;18.45;60.29;98134.75;10358369;28;19940;-56
2022/07/14 06:56:36;;;;;;;7.68;3.63;;;;;;;18.76;60.47;98134.84;10350635;28;20076;-56
2022/07/14 07:01:37;;;;;;;5.88;3.40;;;;;;;19.01;58.12;98119.22;10360225;28;20029;-56
2022/07/14 07:06:44;;;;;;;6.22;3.22;;;;;;;19.26;57.46;98115.88;10351799;28;20077;-56
2022/07/14 07:11:45;;;;;;;5.13;3.50;;;;;;;19.57;57.67;98122.84;10356024;28;20071;-56
2022/07/14 07:16:45;;;;;;;5.05;3.10;;;;;;;19.82;55.76;98120.28;10358598;28;20484;-56
2022/07/14 07:21:44;;;;;;;6.32;2.80;;;;;;;20.08;53.42;98111.53;10363552;28;20053;-55
2022/07/14 07:26:43;;;;;;;8.02;3.17;;;;;;;20.38;53.02;98111.41;10361542;28;20152;-55
2022/07/14 07:31:42;;;;;;;5.07;2.42;;;;;;;20.69;51.18;98104.13;10363144;28;20504;-55
2022/07/14 07:36:41;;;;;;;6.55;2.60;;;;;;;20.99;50.13;98101.28;10377118;28;20511;-55
2022/07/14 07:41:40;;;;;;;5.32;2.42;;;;;;;21.35;49.74;98095.53;10376992;28;20488;-55
2022/07/14 07:46:39;;;;;;;2.83;2.10;;;;;;;21.53;49.25;98097.47;10343944;28;20069;-55
2022/07/14 07:51:38;;;;;;;2.60;2.05;;;;;;;21.86;46.42;98089.09;10375278;28;20539;-55
2022/07/14 07:56:37;;;;;;;5.47;2.40;;;;;;;22.23;45.70;98086.72;10376217;28;20488;-55
2022/07/14 08:01:36;;;;;;;2.47;2.22;;;;;;;22.49;45.64;98083.81;10375365;28;20068;-55
2022/07/14 08:06:35;;;;;;;3.67;2.30;;;;;;;22.66;43.80;98080.41;10375930;28;20056;-55
2022/07/14 08:11:34;;;;;;;2.50;1.83;;;;;;;22.78;40.70;98073.72;10363526;28;20084;-55
2022/07/14 08:16:34;;;;;;;3.85;1.95;;;;;;;23.09;41.34;98067.91;10349322;28;20108;-57
2022/07/14 08:21:33;;;;;;;3.60;1.92;;;;;;;23.32;38.66;98069.44;10375313;28;20060;-55
2022/07/14 08:26:32;;;;;;;3.80;1.73;;;;;;;23.57;40.13;98074.44;10342360;28;20072;-55
2022/07/14 08:31:31;;;;;;;4.40;1.70;;;;;;;23.78;40.05;98071.69;10334840;28;20614;-55
2022/07/14 08:36:30;;;;;;;3.78;1.77;;;;;;;23.87;38.36;98059.78;10345878;28;20022;-55
2022/07/14 08:41:29;;;;;;;3.05;1.80;;;;;;;23.97;38.08;98064.53;10345982;28;20083;-55
2022/07/14 08:46:32;;;;;;;2.80;1.75;;;;;;;24.15;39.00;98061.91;10363581;28;20068;-55
2022/07/14 08:51:33;;;;;;;2.45;1.80;;;;;;;24.23;37.24;98054.41;10349025;28;20056;-55
2022/07/14 08:56:32;;;;;;;4.05;1.75;;;;;;;24.45;38.98;98052.38;10353838;28;20060;-55
2022/07/14 09:01:31;;;;;;;4.30;1.70;;;;;;;24.52;37.33;98047.59;10367998;28;20068;-56
2022/07/14 09:06:50;;;;;;;5.47;2.78;;;;;;;24.67;37.95;98040.63;10363829;28;20061;-55
2022/07/14 09:11:52;;;;;;;3.97;1.88;;;;;;;24.74;35.97;98044.66;10354396;28;20585;-56
2022/07/14 09:16:53;;;;;;;2.22;1.50;;;;;;;24.72;33.29;98035.91;10357670;28;20473;-55
2022/07/14 09:21:58;;;;;;;3.88;2.00;;;;;;;24.87;34.41;98027.16;10352049;28;20057;-56
2022/07/14 09:26:57;;;;;;;2.95;1.38;;;;;;;24.88;31.07;98022.69;10355313;28;20061;-56
2022/07/14 09:31:56;;;;;;;2.83;1.70;;;;;;;25.06;30.87;98020.84;10352366;28;20068;-55
2022/07/14 09:37:15;;;;;;;1.67;1.10;;;;;;;25.28;32.21;98015.16;10352225;28;20797;-56
2022/07/14 09:42:14;;;;;;;1.60;1.30;;;;;;;25.31;30.56;98013.19;10348640;28;20102;-55
2022/07/14 09:47:13;;;;;;;2.20;1.75;;;;;;;25.33;31.20;98002.47;10368764;28;20068;-55
2022/07/14 09:52:13;;;;;;;5.25;1.80;;;;;;;25.49;30.94;98013.09;10354789;28;20022;-55
2022/07/14 09:57:14;;;;;;;5.50;1.60;;;;;;;25.54;29.16;98005.72;10353208;28;20057;-55
2022/07/14 10:02:29;;;;;;;1.63;1.40;;;;;;;25.62;28.54;97998.19;10351735;28;20073;-55
2022/07/14 10:07:36;;;;;;;3.80;1.35;;;;;;;25.81;28.89;98002.38;10354196;28;20140;-55
2022/07/14 10:12:36;;;;;;;2.85;1.10;;;;;;;25.61;26.38;97990.28;10357682;28;20045;-56
2022/07/14 10:17:37;;;;;;;3.45;1.40;;;;;;;25.87;27.12;98002.03;10361182;28;20071;-55
2022/07/14 10:22:36;;;;;;;2.22;1.30;;;;;;;25.96;27.02;97990.84;10363688;28;20068;-54
2022/07/14 10:27:39;;;;;;;2.03;1.83;;;;;;;26.03;28.94;97991.34;10356861;28;20068;-57
2022/07/14 10:33:01;;;;;;;8.65;3.78;;;;;;;26.31;30.15;97979.91;10350264;28;20045;-54
2022/07/14 10:38:09;;;;;;;4.13;1.15;;;;;;;26.52;28.54;97973.25;10344689;28;20696;-57
2022/07/14 10:43:42;;;;;;;1.53;1.40;;;;;;;26.21;28.67;97978.78;10373384;28;20064;-56
2022/07/14 10:48:48;;;;;;;2.45;1.25;;;;;;;26.36;30.03;97957.38;10383220;28;20069;-56
2022/07/14 10:54:07;;;;;;;1.50;1.40;;;;;;;26.64;28.91;97955.66;10362907;28;20064;-56
2022/07/14 10:59:30;;;;;;;3.63;1.40;;;;;;;26.60;29.79;97953.28;10375024;28;20505;-56
2022/07/14 11:05:00;;;;;;;2.55;1.33;;;;;;;26.66;28.36;97959.09;10362974;28;20065;-56
2022/07/14 11:10:01;;;;;;;1.15;1.10;;;;;;;26.68;28.56;97945.69;10339636;28;20073;-56
2022/07/14 11:15:00;;;;;;;1.70;1.30;;;;;;;26.75;28.46;97947.00;10338515;28;20086;-56
2022/07/14 11:19:58;;;;;;;3.10;1.75;;;;;;;26.97;27.99;97946.50;10339059;28;20411;-56
2022/07/14 11:24:59;;;;;;;3.50;1.55;;;;;;;27.03;27.10;97934.63;10340935;28;20128;-56
2022/07/14 11:30:15;;;;;;;2.10;1.48;;;;;;;27.05;27.49;97935.34;10374716;28;20069;-56
2022/07/14 11:40:51;;;;;;;2.33;1.30;;;;;;;27.35;27.39;97927.13;10375756;28;20080;-56
2022/07/14 11:45:58;;;;;;;1.42;1.33;;;;;;;27.18;26.94;97923.78;10375828;28;20069;-56
2022/07/14 11:51:02;;;;;;;6.72;1.98;;;;;;;27.35;26.66;97917.34;10375612;28;20079;-56
2022/07/14 11:56:03;;;;;;;2.75;1.52;;;;;;;27.53;27.10;97898.44;10375581;28;20064;-56
2022/07/14 12:01:03;;;;;;;1.40;1.30;;;;;;;27.70;27.08;97900.78;10375406;28;20072;-56
2022/07/14 12:06:03;;;;;;;2.25;1.40;;;;;;;27.77;25.35;97898.56;10375473;28;20500;-56
2022/07/14 12:11:04;;;;;;;5.35;1.67;;;;;;;27.72;25.26;97892.69;10374714;28;20079;-56
2022/07/14 12:16:03;;;;;;;4.00;1.30;;;;;;;27.68;25.17;97899.19;10373800;28;20072;-56
2022/07/14 12:21:03;;;;;;;2.05;1.40;;;;;;;27.81;26.17;97884.91;10374554;28;20073;-56
2022/07/14 12:26:03;;;;;;;1.20;1.15;;;;;;;28.29;25.94;97881.63;10374118;28;20079;-56
2022/07/14 12:31:02;;;;;;;2.83;1.17;;;;;;;28.27;24.82;97878.22;10373607;28;20068;-56
2022/07/14 12:36:02;;;;;;;2.30;1.30;;;;;;;28.27;25.04;97872.00;10373959;28;20051;-56
2022/07/14 12:41:03;;;;;;;1.23;1.13;;;;;;;27.95;24.33;97870.63;10372960;28;20464;-56
2022/07/14 12:46:04;;;;;;;3.72;1.40;;;;;;;28.29;24.69;97868.28;10374072;28;20064;-56
2022/07/14 12:51:16;;;;;;;1.40;1.23;;;;;;;28.34;24.94;97870.63;10375300;28;20071;-56
2022/07/14 12:56:18;;;;;;;3.72;1.27;;;;;;;28.34;25.93;97859.94;10374275;28;20068;-56
2022/07/14 13:01:17;;;;;;;2.40;1.50;;;;;;;28.58;25.37;97858.16;10372991;28;20072;-56
2022/07/14 13:06:16;;;;;;;3.70;1.50;;;;;;;28.55;25.15;97858.38;10372137;28;20118;-56
2022/07/14 13:11:15;;;;;;;3.17;1.20;;;;;;;28.72;25.77;97853.66;10366738;28;20029;-56
2022/07/14 13:16:30;;;;;;;7.85;2.28;;;;;;;28.79;25.87;97844.22;10352498;28;20536;-56
2022/07/14 13:21:47;;;;;;;5.45;2.42;;;;;;;28.79;25.21;97841.56;10354136;28;20069;-56
2022/07/14 13:27:07;;;;;;;1.73;1.50;;;;;;;28.71;26.21;97826.09;10345838;28;20080;-56
2022/07/14 13:32:08;;;;;;;8.90;1.98;;;;;;;28.74;26.14;97822.38;10344471;28;20072;-56
2022/07/14 13:37:10;;;;;;;4.22;1.38;;;;;;;28.60;25.15;97826.84;10336763;28;20148;-56
2022/07/14 13:42:09;;;;;;;4.32;1.40;;;;;;;28.65;25.75;97806.00;10336238;28;20073;-56
2022/07/14 13:47:08;;;;;;;3.28;1.52;;;;;;;28.85;25.94;97820.59;10358192;28;20072;-56
2022/07/14 13:52:09;;;;;;;4.82;1.58;;;;;;;28.89;25.62;97818.53;10364662;28;20017;-57
2022/07/14 13:57:08;;;;;;;4.47;1.50;;;;;;;28.88;24.40;97795.47;10366292;28;20060;-56
2022/07/14 14:02:07;;;;;;;5.28;1.30;;;;;;;28.96;24.51;97809.09;10365389;28;20033;-57
2022/07/14 14:07:07;;;;;;;1.55;1.40;;;;;;;29.05;24.70;97797.69;10365748;28;20033;-56
2022/07/14 14:12:06;;;;;;;2.00;1.38;;;;;;;29.10;24.32;97789.34;10378754;28;20051;-56
2022/07/14 14:17:05;;;;;;;3.50;1.92;;;;;;;29.58;24.96;97791.03;10382600;28;20075;-56
2022/07/14 14:22:04;;;;;;;2.42;1.52;;;;;;;29.53;24.29;97795.91;10371588;28;20034;-56
2022/07/14 14:27:03;;;;;;;10.82;2.75;;;;;;;29.39;24.31;97784.47;10380538;28;20033;-56
2022/07/14 14:32:02;;;;;;;3.38;1.33;;;;;;;29.50;23.84;97786.28;10378519;28;20417;-56
2022/07/14 14:37:01;;;;;;;11.63;1.98;;;;;;;29.57;24.10;97776.81;10377472;28;20063;-56
2022/07/14 14:42:00;;;;;;;3.50;1.85;;;;;;;29.41;24.79;97770.97;10377900;28;20112;-56
2022/07/14 14:46:59;;;;;;;2.95;1.30;;;;;;;29.31;25.08;97770.84;10377660;28;20033;-56
2022/07/14 14:51:58;;;;;;;1.10;1.10;;;;;;;29.25;24.46;97772.16;10377523;28;20500;-56
2022/07/14 14:56:57;;;;;;;1.55;1.45;;;;;;;29.22;24.75;97761.66;10376777;28;20122;-56
2022/07/14 15:01:56;;;;;;;6.57;2.33;;;;;;;29.06;25.05;97745.13;10377371;28;20056;-56
2022/07/14 15:06:55;;;;;;;2.78;1.45;;;;;;;29.30;25.15;97753.13;10377533;28;20575;-55
2022/07/14 15:11:54;;;;;;;3.58;1.30;;;;;;;29.23;26.04;97755.38;10344231;28;20068;-56
2022/07/14 15:16:53;;;;;;;3.88;1.70;;;;;;;29.15;25.18;97752.44;10335733;28;20034;-56
2022/07/14 15:21:52;;;;;;;3.63;2.40;;;;;;;28.86;24.95;97750.16;10338918;28;20914;-56
2022/07/14 15:26:51;;;;;;;2.83;1.42;;;;;;;28.98;25.14;97752.88;10376207;28;20076;-56
2022/07/14 15:31:50;;;;;;;3.15;1.52;;;;;;;28.87;25.05;97743.00;10375718;28;20480;-56
2022/07/14 15:36:49;;;;;;;1.85;1.27;;;;;;;28.92;24.69;97743.50;10375924;28;20071;-56
2022/07/14 15:41:48;;;;;;;1.50;1.30;;;;;;;28.99;25.63;97738.53;10375695;28;20049;-56
2022/07/14 15:46:48;;;;;;;2.85;1.40;;;;;;;28.82;25.56;97731.81;10376011;28;20509;-56
2022/07/14 15:51:47;;;;;;;4.45;2.63;;;;;;;28.66;25.98;97738.31;10374718;28;20390;-56
2022/07/14 15:56:46;;;;;;;4.22;1.77;;;;;;;28.71;26.10;97726.44;10370699;28;20144;-55
2022/07/14 16:01:45;;;;;;;2.05;1.80;;;;;;;28.65;25.73;97741.06;10375708;28;20124;-55
2022/07/14 16:06:44;;;;;;;3.03;1.38;;;;;;;28.55;25.98;97735.56;10375215;28;20068;-55
2022/07/14 16:11:43;;;;;;;3.80;1.42;;;;;;;28.48;26.07;97731.66;10373887;28;20087;-57
2022/07/14 16:16:42;;;;;;;2.35;1.20;;;;;;;28.42;26.31;97724.09;10372567;28;20072;-56
2022/07/14 16:21:41;;;;;;;1.75;1.50;;;;;;;28.35;25.95;97718.38;10374296;28;20028;-55
2022/07/14 16:26:40;;;;;;;7.88;2.10;;;;;;;28.31;26.39;97721.38;10374046;28;20447;-57
2022/07/14 16:31:39;;;;;;;17.83;3.95;;;;;;;28.20;26.21;97720.34;10377128;28;20025;-55
2022/07/14 16:36:38;;;;;;;6.18;2.90;;;;;;;28.19;26.47;97715.97;10377138;28;20074;-57
2022/07/14 16:41:37;;;;;;;5.88;2.45;;;;;;;28.22;25.74;97726.44;10375872;28;20110;-55
2022/07/14 16:46:36;;;;;;;11.80;4.95;;;;;;;28.18;25.97;97716.94;10376393;28;20504;-55
2022/07/14 16:51:35;;;;;;;3.33;1.80;;;;;;;28.11;26.63;97726.38;10376273;28;20108;-55
2022/07/14 16:56:35;;;;;;;4.13;1.50;;;;;;;28.10;26.43;97718.47;10375841;28;20028;-55
2022/07/14 17:01:34;;;;;;;1.92;1.70;;;;;;;28.16;26.82;97721.53;10375670;28;20079;-55
2022/07/14 17:06:33;;;;;;;4.00;1.60;;;;;;;28.05;26.26;97710.75;10375999;28;20063;-55
2022/07/14 17:11:32;;;;;;;3.17;1.50;;;;;;;27.95;26.70;97709.75;10375696;28;20064;-55
2022/07/14 17:16:32;;;;;;;4.60;1.80;;;;;;;27.86;26.53;97705.06;10370954;28;20124;-55
2022/07/14 17:21:31;;;;;;;3.83;1.80;;;;;;;27.76;26.49;97715.56;10375586;28;20072;-55
2022/07/14 17:26:30;;;;;;;4.97;2.45;;;;;;;27.57;28.46;97722.19;10375046;28;20068;-55
2022/07/14 17:31:29;;;;;;;7.40;2.97;;;;;;;27.24;30.86;97717.38;10372967;28;20033;-55
2022/07/14 17:36:28;;;;;;;5.95;3.00;;;;;;;26.90;32.34;97714.38;10371178;28;20117;-55
2022/07/14 17:41:27;;;;;;;4.93;2.13;;;;;;;26.43;33.34;97720.19;10371369;28;20048;-55
2022/07/14 17:46:26;;;;;;;8.70;3.00;;;;;;;26.05;34.10;97729.69;10367673;28;20044;-55
2022/07/14 17:56:42;;;;;;;9.18;4.47;;;;;;;25.40;35.96;97726.69;10371216;28;20068;-56
2022/07/14 18:01:41;;;;;;;8.68;3.10;;;;;;;24.98;36.78;97721.22;10368706;28;20049;-56
2022/07/14 18:06:40;;;;;;;4.68;2.63;;;;;;;24.68;37.68;97734.50;10371716;28;20500;-56
2022/07/14 18:11:39;;;;;;;10.57;3.67;;;;;;;24.36;37.99;97721.31;10371535;28;20112;-56
2022/07/14 18:16:39;;;;;;;10.10;3.40;;;;;;;24.01;38.15;97731.25;10365425;28;20140;-56
2022/07/14 18:21:39;;;;;;;4.80;2.30;;;;;;;23.70;38.08;97738.22;10371084;28;20061;-56
2022/07/14 18:26:40;;;;;;;3.60;2.00;;;;;;;23.38;38.69;97739.94;10344771;28;20104;-56
2022/07/14 18:31:39;;;;;;;4.88;1.77;;;;;;;23.04;39.77;97746.13;10330070;28;20079;-56
2022/07/14 18:36:39;;;;;;;5.10;2.17;;;;;;;22.74;40.58;97754.69;10335945;28;20136;-56
2022/07/14 18:41:38;;;;;;;3.80;2.47;;;;;;;22.46;41.02;97765.72;10337570;28;20088;-56
2022/07/14 18:46:37;;;;;;;3.75;2.53;;;;;;;22.18;41.32;97765.31;10352171;28;20068;-56
2022/07/14 18:51:36;;;;;;;5.75;2.20;;;;;;;22.01;41.21;97774.94;10378100;28;20089;-56
2022/07/14 18:56:36;;;;;;;3.15;2.05;;;;;;;21.82;41.86;97770.47;10377254;28;20072;-56
2022/07/14 19:01:35;;;;;;;4.97;2.40;;;;;;;21.65;42.09;97773.06;10377677;28;20087;-56
2022/07/14 19:06:34;;;;;;;3.55;2.20;;;;;;;21.45;42.32;97771.28;10377011;28;20045;-55
2022/07/14 19:11:33;;;;;;;4.43;2.20;;;;;;;21.30;42.60;97762.28;10377218;28;20362;-56
2022/07/14 19:16:32;;;;;;;3.03;2.20;;;;;;;21.13;43.11;97766.50;10370863;28;20025;-55
2022/07/14 19:21:31;;;;;;;3.03;1.90;;;;;;;20.94;43.37;97773.50;10376790;28;20063;-55
2022/07/14 19:26:30;;;;;;;4.53;2.38;;;;;;;20.78;43.62;97775.06;10375855;28;20060;-55
2022/07/14 19:31:29;;;;;;;4.07;2.30;;;;;;;20.66;43.85;97776.44;10374340;28;20076;-55
2022/07/14 19:36:28;;;;;;;4.80;2.80;;;;;;;20.48;44.94;97778.88;10376411;28;20071;-55
2022/07/14 19:41:27;;;;;;;5.15;2.80;;;;;;;20.34;45.95;97775.06;10375280;28;20069;-55
2022/07/14 19:46:27;;;;;;;11.35;5.13;;;;;;;20.32;47.55;97782.16;10375148;28;20486;-55
2022/07/14 19:51:28;;;;;;;7.35;3.72;;;;;;;20.17;48.22;97768.69;10375804;28;20063;-55
2022/07/14 19:56:28;;;;;;;7.38;3.83;;;;;;;20.14;48.47;97779.34;10374835;28;20579;-55
2022/07/14 20:01:27;;;;;;;7.13;3.40;;;;;;;20.04;48.87;97776.19;10374402;28;20076;-55
2022/07/14 20:06:26;;;;;;;4.78;3.20;;;;;;;19.94;49.07;97781.91;10374833;28;20090;-55
2022/07/14 20:11:25;;;;;;;7.20;3.45;;;;;;;19.83;49.33;97779.66;10374228;28;20029;-55
2022/07/14 20:16:24;;;;;;;5.93;2.67;;;;;;;19.71;48.73;97780.97;10361033;28;20469;-55
2022/07/14 20:21:24;;;;;;;10.10;4.78;;;;;;;19.54;50.11;97780.72;10341984;28;20447;-55
2022/07/14 20:26:23;;;;;;;8.80;4.90;;;;;;;19.50;50.99;97779.13;10373171;28;20068;-55
2022/07/14 20:36:40;;;;;;;12.70;6.10;;;;;;;19.17;53.75;97777.63;10374369;28;20064;-55
2022/07/14 20:41:38;;;;;;;11.07;5.32;;;;;;;19.07;53.67;97771.00;10373167;28;20073;-55
2022/07/14 20:51:55;;;;;;;10.73;5.03;;;;;;;18.79;56.45;97774.56;10372721;28;20460;-55
2022/07/14 20:56:54;;;;;;;9.50;5.32;;;;;;;18.67;57.37;97779.34;10370229;28;20419;-55
2022/07/14 21:01:53;;;;;;;10.30;5.03;;;;;;;18.51;57.54;97779.00;10353591;28;20061;-55
2022/07/14 21:06:52;;;;;;;8.50;4.13;;;;;;;18.14;59.08;97781.00;10330218;28;20041;-55
2022/07/14 21:11:51;;;;;;;10.55;4.20;;;;;;;17.97;59.26;97778.91;10332415;28;20496;-55
2022/07/14 21:16:50;;;;;;;7.50;3.30;;;;;;;17.79;60.29;97774.19;10348744;28;20476;-55
2022/07/14 21:21:50;;;;;;;6.25;3.80;;;;;;;17.65;60.40;97777.19;10372491;28;20041;-55
2022/07/14 21:26:49;;;;;;;6.57;3.78;;;;;;;17.56;60.36;97769.59;10372613;28;20069;-55
2022/07/14 21:31:48;;;;;;;7.10;3.30;;;;;;;17.54;60.78;97780.16;10375176;28;20025;-55
2022/07/14 21:36:47;;;;;;;;;;;;;;;17.48;60.74;97774.22;10375552;28;20040;-55
2022/07/14 21:41:45;;;;;;;7.80;3.97;;;;;;;17.43;60.79;97773.47;10375416;28;20039;-55
2022/07/14 21:46:44;;;;;;;;;;;;;;;17.40;61.32;97763.06;10375644;28;20121;-55
2022/07/14 21:51:43;;;;;;;8.83;3.80;;;;;;;17.28;62.39;97748.53;10374743;28;20003;-55
2022/07/14 21:56:42;;;;;;;7.75;3.80;;;;;;;17.29;62.65;97758.13;10375026;28;20061;-55
2022/07/14 22:01:41;;;;;;;4.50;3.20;;;;;;;17.18;62.86;97750.53;10374698;28;20455;-55
2022/07/14 22:06:40;;;;;;;4.35;3.00;;;;;;;17.10;63.01;97731.56;10375401;28;20465;-55
2022/07/14 22:11:39;;;;;;;6.22;2.85;;;;;;;17.01;62.85;97743.16;10382682;28;20503;-55
2022/07/14 22:16:39;;;;;;;6.70;3.17;;;;;;;16.89;63.13;97744.34;10382606;28;20080;-55
2022/07/14 22:21:38;;;;;;;5.57;2.95;;;;;;;16.79;64.19;97748.03;10375942;28;20284;-55
2022/07/14 22:31:56;;;;;;;6.13;3.40;;;;;;;16.57;66.74;97742.50;10337739;28;20065;-55
2022/07/14 22:36:55;;;;;;;5.65;3.33;;;;;;;16.59;66.55;97750.34;10337384;28;20068;-56
2022/07/14 22:41:53;;;;;;;;;;;;;;;16.58;66.63;97736.34;10337768;28;20057;-55
2022/07/14 22:46:52;;;;;;;8.20;3.80;;;;;;;16.52;66.92;97737.38;10336480;28;20011;-55
2022/07/14 22:51:51;;;;;;;;;;;;;;;16.44;66.73;97735.84;10337028;28;20539;-55
2022/07/14 22:56:50;;;;;;;5.65;2.83;;;;;;;16.34;66.81;97729.97;10336340;28;20483;-55
2022/07/14 23:01:49;;;;;;;;;;;;;;;16.27;66.92;97724.03;10337853;28;20079;-55
2022/07/14 23:06:48;;;;;;;3.35;2.33;;;;;;;16.21;66.59;97723.34;10335623;28;19959;-55
2022/07/14 23:17:05;;;;;;;4.35;3.17;;;;;;;16.09;66.74;97709.66;10355603;28;20060;-55
2022/07/14 23:22:04;;;;;;;3.83;2.90;;;;;;;16.06;66.93;97708.84;10376000;28;20068;-55
2022/07/14 23:27:03;;;;;;;;;;;;;;;16.00;67.47;97703.78;10375139;28;20051;-55
2022/07/14 23:32:02;;;;;;;7.90;3.60;;;;;;;15.92;68.91;97692.59;10377132;28;20376;-55
2022/07/14 23:37:01;;;;;;;;;;;;;;;15.81;69.85;97690.22;10375692;28;20091;-55
2022/07/14 23:42:00;;;;;;;6.32;3.90;;;;;;;15.73;70.45;97700.00;10375577;28;20311;-55
2022/07/14 23:47:00;;;;;;;10.18;5.07;;;;;;;15.57;71.87;97699.47;10376088;28;20076;-55
2022/07/14 23:51:59;;;;;;;;;;;;;;;15.42;72.10;97700.66;10375576;28;20021;-55
2022/07/14 23:56:58;;;;;;;7.32;3.25;;;;;;;15.23;72.41;97705.41;10375890;28;20008;-55
